createdAt,value
2023-01-12T00:00:37.473Z,10.20
2023-01-12T00:04:41.036Z,12.18
2023-01-12T00:08:43.870Z,11.00
2023-01-12T00:12:46.625Z,12.38
2023-01-12T00:16:49.344Z,10.85
2023-01-12T00:20:52.105Z,13.73
2023-01-12T00:24:55.963Z,12.07
2023-01-12T00:28:58.774Z,16.23
2023-01-12T00:33:01.506Z,20.27
2023-01-12T00:37:04.656Z,21.48
2023-01-12T00:41:12.654Z,24.75
2023-01-12T00:45:24.793Z,32.58
2023-01-12T00:49:27.764Z,25.23
2023-01-12T00:53:31.344Z,28.40
2023-01-12T00:57:34.248Z,28.38
2023-01-12T01:01:37.389Z,46.00
2023-01-12T01:05:40.483Z,41.97
2023-01-12T01:09:44.389Z,44.15
2023-01-12T01:13:48.142Z,43.60
2023-01-12T01:17:50.967Z,46.08
2023-01-12T01:21:54.025Z,38.72
2023-01-12T01:26:03.887Z,41.03
2023-01-12T01:30:07.826Z,38.65
2023-01-12T01:34:10.587Z,37.42
2023-01-12T01:38:13.510Z,37.00
2023-01-12T01:42:28.525Z,35.00
2023-01-12T01:46:47.187Z,32.58
2023-01-12T01:50:57.746Z,29.90
2023-01-12T01:55:15.883Z,27.00
2023-01-12T01:59:25.008Z,30.23
2023-01-12T02:03:29.416Z,27.00
2023-01-12T02:07:33.596Z,29.08
2023-01-12T02:11:54.756Z,27.05
2023-01-12T02:16:21.112Z,23.45
2023-01-12T02:20:40.926Z,25.45
2023-01-12T02:25:04.144Z,27.05
2023-01-12T02:29:18.977Z,28.45
2023-01-12T02:34:02.407Z,30.13
2023-01-12T02:38:30.659Z,24.98
2023-01-12T02:42:59.031Z,24.77
2023-01-12T02:47:06.967Z,25.10
2023-01-12T02:51:33.498Z,23.17
2023-01-12T02:55:37.679Z,26.65
2023-01-12T02:59:45.350Z,24.27
2023-01-12T03:03:49.274Z,26.55
2023-01-12T03:08:05.494Z,25.55
2023-01-12T03:12:13.936Z,23.85
2023-01-12T03:16:21.213Z,24.75
2023-01-12T03:20:32.252Z,21.15
2023-01-12T03:24:44.419Z,24.42
2023-01-12T03:28:53.675Z,24.38
2023-01-12T03:32:56.692Z,25.00
2023-01-12T03:37:15.628Z,22.48
2023-01-12T03:41:45.869Z,24.90
2023-01-12T03:45:57.137Z,28.90
2023-01-12T03:50:02.074Z,27.35
2023-01-12T03:54:07.025Z,32.15
2023-01-12T03:58:10.679Z,29.30
2023-01-12T04:02:13.886Z,30.77
2023-01-12T04:06:16.701Z,29.52
2023-01-12T04:10:19.541Z,31.52
2023-01-12T04:14:22.420Z,25.63
2023-01-12T04:18:25.295Z,30.67
2023-01-12T04:22:46.299Z,29.63
2023-01-12T04:26:49.123Z,24.33
2023-01-12T04:30:52.059Z,29.02
2023-01-12T04:34:54.883Z,28.30
2023-01-12T04:38:57.778Z,14.38
2023-01-12T04:43:08.766Z,12.90
2023-01-12T04:47:11.852Z,31.35
2023-01-12T04:51:14.706Z,26.48
2023-01-12T04:55:17.622Z,23.42
2023-01-12T04:59:20.324Z,23.25
2023-01-12T05:03:23.297Z,18.98
2023-01-12T05:07:26.049Z,11.35
2023-01-12T05:11:29.859Z,10.38
2023-01-12T05:15:32.615Z,22.45
2023-01-12T05:19:35.600Z,22.52
2023-01-12T05:23:38.519Z,17.63
2023-01-12T05:27:41.244Z,18.92
2023-01-12T05:31:43.952Z,24.77
2023-01-12T05:35:46.940Z,22.02
2023-01-12T05:39:49.711Z,28.05
2023-01-12T05:43:53.032Z,25.75
2023-01-12T05:48:03.142Z,20.60
2023-01-12T05:52:06.100Z,11.32
2023-01-12T05:56:21.166Z,11.75
2023-01-12T06:00:24.212Z,9.18
2023-01-12T06:04:27.965Z,15.48
2023-01-12T06:08:31.098Z,13.52
2023-01-12T06:12:52.542Z,11.15
2023-01-12T06:16:55.650Z,9.55
2023-01-12T06:20:59.957Z,9.65
2023-01-12T06:25:03.304Z,9.10
2023-01-12T06:29:07.213Z,8.02
2023-01-12T06:33:10.291Z,7.00
2023-01-12T06:37:13.266Z,7.05
2023-01-12T06:41:34.538Z,9.40
2023-01-12T06:45:37.561Z,8.30
2023-01-12T06:49:40.344Z,6.35
2023-01-12T06:53:43.366Z,5.30
2023-01-12T06:57:46.602Z,5.53
2023-01-12T07:01:49.652Z,5.07
2023-01-12T07:05:52.480Z,5.35
2023-01-12T07:09:55.437Z,4.35
2023-01-12T07:13:58.789Z,5.30
2023-01-12T07:18:02.069Z,6.75
2023-01-12T07:22:04.951Z,4.50
2023-01-12T07:26:08.084Z,5.35
2023-01-12T07:30:14.410Z,4.80
2023-01-12T07:34:17.369Z,2.78
2023-01-12T07:38:20.771Z,3.00
2023-01-12T07:42:23.714Z,2.35
2023-01-12T07:46:27.609Z,2.28
2023-01-12T07:50:30.640Z,2.05
2023-01-12T07:54:36.140Z,2.30
2023-01-12T07:58:38.975Z,2.20
2023-01-12T08:02:41.719Z,4.82
2023-01-12T08:06:44.496Z,8.43
2023-01-12T08:10:50.147Z,8.18
2023-01-12T08:14:54.023Z,7.35
2023-01-12T08:19:16.823Z,5.65
2023-01-12T08:23:36.095Z,8.65
2023-01-12T08:27:42.185Z,5.53
2023-01-12T08:35:49.170Z,3.72
2023-01-12T08:39:52.574Z,2.35
2023-01-12T08:44:05.467Z,4.80
2023-01-12T08:48:08.287Z,2.72
2023-01-12T08:52:11.054Z,2.25
2023-01-12T08:56:14.146Z,3.13
2023-01-12T09:00:17.988Z,4.00
2023-01-12T09:04:20.884Z,5.63
2023-01-12T09:08:23.710Z,4.45
2023-01-12T09:12:27.896Z,4.35
2023-01-12T09:16:32.264Z,3.10
2023-01-12T09:20:35.007Z,2.50
2023-01-12T09:24:37.805Z,5.15
2023-01-12T09:28:41.270Z,3.15
2023-01-12T09:32:44.390Z,2.38
2023-01-12T09:36:48.934Z,3.75
2023-01-12T09:40:51.937Z,3.22
2023-01-12T09:45:13.298Z,4.93
2023-01-12T09:49:18.606Z,2.78
2023-01-12T09:53:40.497Z,3.08
2023-01-12T09:58:24.699Z,3.50
2023-01-12T10:02:27.771Z,3.00
2023-01-12T10:06:31.283Z,1.92
2023-01-12T10:10:34.359Z,2.97
2023-01-12T10:14:40.715Z,2.85
2023-01-12T10:18:47.955Z,3.08
2023-01-12T10:22:56.083Z,2.17
2023-01-12T10:27:03.235Z,6.55
2023-01-12T10:31:06.163Z,2.33
2023-01-12T10:35:19.164Z,3.55
2023-01-12T10:39:44.476Z,3.28
2023-01-12T10:44:05.683Z,2.58
2023-01-12T10:48:26.800Z,2.58
2023-01-12T10:52:39.789Z,2.95
2023-01-12T10:56:53.933Z,2.67
2023-01-12T11:00:57.364Z,2.88
2023-01-12T11:05:35.018Z,2.28
2023-01-12T11:09:38.498Z,4.40
2023-01-12T11:13:41.517Z,2.28
2023-01-12T11:18:26.367Z,4.55
2023-01-12T11:22:34.284Z,3.05
2023-01-12T11:26:43.051Z,3.10
2023-01-12T11:30:58.547Z,4.20
2023-01-12T11:35:42.026Z,3.07
2023-01-12T11:39:52.779Z,3.53
2023-01-12T11:44:14.435Z,1.70
2023-01-12T11:48:30.891Z,3.10
2023-01-12T11:52:34.772Z,2.97
2023-01-12T11:56:37.669Z,3.25
2023-01-12T12:01:01.900Z,4.28
2023-01-12T12:05:22.439Z,4.43
2023-01-12T12:10:00.652Z,4.18
2023-01-12T12:14:37.794Z,3.33
2023-01-12T12:19:11.746Z,87.70
2023-01-12T12:23:45.162Z,61.20
2023-01-12T12:27:57.078Z,4.80
2023-01-12T12:32:21.418Z,4.20
2023-01-12T12:36:47.454Z,5.53
2023-01-12T12:41:41.371Z,4.28
2023-01-12T12:46:10.885Z,5.35
2023-01-12T12:50:38.536Z,3.67
2023-01-12T12:54:41.710Z,4.30
2023-01-12T12:58:53.221Z,4.68
2023-01-12T13:02:56.420Z,5.68
2023-01-12T13:07:06.017Z,4.22
2023-01-12T13:11:09.843Z,4.60
2023-01-12T13:15:29.663Z,4.47
2023-01-12T13:19:39.858Z,5.32
2023-01-12T13:23:50.846Z,6.22
2023-01-12T13:28:18.245Z,4.60
2023-01-12T13:32:42.254Z,5.50
2023-01-12T13:36:45.316Z,4.40
2023-01-12T13:40:55.705Z,3.88
2023-01-12T13:44:59.349Z,6.45
2023-01-12T13:49:03.503Z,4.55
2023-01-12T13:53:23.691Z,3.50
2023-01-12T13:57:30.052Z,8.55
2023-01-12T14:01:34.836Z,3.75
2023-01-12T14:05:55.905Z,4.20
2023-01-12T14:10:07.692Z,3.45
2023-01-12T14:14:38.148Z,5.85
2023-01-12T14:18:44.684Z,2.92
2023-01-12T14:22:47.936Z,6.45
2023-01-12T14:26:51.227Z,5.13
2023-01-12T14:30:56.300Z,5.45
2023-01-12T14:34:59.340Z,8.32
2023-01-12T14:39:09.191Z,5.53
2023-01-12T14:43:34.597Z,5.45
2023-01-12T14:47:38.863Z,5.70
2023-01-12T14:51:55.748Z,3.97
2023-01-12T14:56:08.565Z,3.95
2023-01-12T15:00:23.587Z,3.78
2023-01-12T15:04:26.510Z,2.97
2023-01-12T15:08:31.199Z,3.83
2023-01-12T15:12:53.103Z,6.35
2023-01-12T15:17:15.294Z,5.78
2023-01-12T15:21:36.655Z,6.90
2023-01-12T15:25:41.359Z,8.40
2023-01-12T15:29:44.293Z,6.63
2023-01-12T15:33:47.236Z,3.60
2023-01-12T15:37:51.772Z,2.72
2023-01-12T15:42:27.793Z,2.45
2023-01-12T15:46:30.749Z,6.10
2023-01-12T15:50:47.640Z,14.50
2023-01-12T15:55:18.392Z,10.73
2023-01-12T15:59:24.165Z,5.20
2023-01-12T16:03:57.378Z,6.80
2023-01-12T16:07:50.419Z,2.25
2023-01-12T16:11:53.343Z,2.17
2023-01-12T16:15:56.204Z,1.63
2023-01-12T16:20:05.516Z,3.38
2023-01-12T16:24:34.356Z,2.42
2023-01-12T16:28:37.290Z,2.97
2023-01-12T16:32:45.854Z,1.75
2023-01-12T16:36:49.003Z,2.67
2023-01-12T16:40:51.882Z,3.47
2023-01-12T16:44:54.669Z,4.55
2023-01-12T16:48:58.679Z,2.40
2023-01-12T16:53:01.376Z,5.18
2023-01-12T16:57:04.342Z,4.93
2023-01-12T17:01:12.424Z,2.53
2023-01-12T17:05:15.419Z,3.88
2023-01-12T17:09:18.392Z,3.05
2023-01-12T17:13:21.264Z,2.92
2023-01-12T17:17:24.151Z,4.95
2023-01-12T17:21:27.236Z,3.35
2023-01-12T17:25:30.583Z,3.20
2023-01-12T17:29:33.783Z,4.57
2023-01-12T17:33:37.756Z,3.78
2023-01-12T17:37:40.544Z,5.05
2023-01-12T17:42:01.903Z,3.90
2023-01-12T17:46:07.681Z,5.88
2023-01-12T17:50:11.226Z,12.15
2023-01-12T17:54:15.520Z,14.52
2023-01-12T17:58:18.862Z,13.27
2023-01-12T18:02:21.820Z,12.07
2023-01-12T18:06:26.800Z,15.30
2023-01-12T18:10:29.796Z,13.38
2023-01-12T18:14:32.754Z,10.98
2023-01-12T18:18:36.304Z,7.50
2023-01-12T18:22:39.797Z,7.85
2023-01-12T18:26:42.821Z,5.30
2023-01-12T18:30:45.666Z,8.18
2023-01-12T18:34:48.488Z,6.80
2023-01-12T18:38:52.413Z,7.63
2023-01-12T18:42:55.904Z,4.30
2023-01-12T18:47:18.979Z,7.65
2023-01-12T18:51:44.879Z,4.22
2023-01-12T18:55:48.497Z,5.00
2023-01-12T18:59:55.214Z,6.40
2023-01-12T19:03:58.090Z,4.95
2023-01-12T19:08:01.061Z,4.22
2023-01-12T19:12:06.044Z,3.78
2023-01-12T19:16:32.479Z,5.03
2023-01-12T19:20:36.330Z,4.78
2023-01-12T19:24:58.106Z,4.32
2023-01-12T19:29:00.891Z,4.32
2023-01-12T19:33:07.669Z,3.50
2023-01-12T19:37:10.654Z,11.52
2023-01-12T19:41:33.408Z,9.50
2023-01-12T19:45:44.297Z,7.18
2023-01-12T19:49:47.344Z,5.95
2023-01-12T19:53:50.155Z,6.45
2023-01-12T19:57:54.546Z,10.52
2023-01-12T20:01:57.494Z,6.45
2023-01-12T20:06:05.933Z,6.82
2023-01-12T20:10:09.340Z,8.30
2023-01-12T20:14:12.342Z,6.70
2023-01-12T20:18:15.316Z,5.18
2023-01-12T20:22:18.168Z,4.70
2023-01-12T20:26:21.464Z,6.18
2023-01-12T20:30:37.345Z,33.30
2023-01-12T20:38:44.400Z,9.57
2023-01-12T20:42:47.892Z,5.75
2023-01-12T20:46:50.765Z,6.35
2023-01-12T20:50:53.685Z,11.15
2023-01-12T20:54:57.001Z,7.30
2023-01-12T20:59:00.349Z,5.07
2023-01-12T21:03:04.784Z,8.63
2023-01-12T21:07:07.627Z,6.93
2023-01-12T21:11:12.395Z,6.85
2023-01-12T21:15:15.627Z,5.07
2023-01-12T21:19:19.213Z,5.95
2023-01-12T21:23:23.380Z,5.43
2023-01-12T21:27:29.324Z,4.88
2023-01-12T21:31:32.449Z,10.37
2023-01-12T21:35:36.054Z,19.73
2023-01-12T21:39:38.966Z,11.95
2023-01-12T21:43:41.889Z,7.03
2023-01-12T21:47:47.926Z,8.82
2023-01-12T21:51:50.710Z,13.27
2023-01-12T21:55:55.495Z,11.00
2023-01-12T21:59:58.453Z,12.07
2023-01-12T22:04:01.525Z,5.35
2023-01-12T22:08:04.869Z,6.72
2023-01-12T22:12:08.007Z,5.85
2023-01-12T22:16:13.691Z,6.72
2023-01-12T22:20:17.037Z,4.78
2023-01-12T22:24:20.345Z,5.18
2023-01-12T22:28:23.129Z,7.53
2023-01-12T22:32:29.380Z,8.25
2023-01-12T22:36:36.384Z,10.00
2023-01-12T22:40:39.812Z,8.77
2023-01-12T22:44:43.775Z,5.43
2023-01-12T22:48:51.575Z,3.88
2023-01-12T22:52:55.874Z,4.53
2023-01-12T22:56:59.872Z,2.72
2023-01-12T23:01:08.326Z,4.63
2023-01-12T23:05:11.140Z,5.38
2023-01-12T23:09:20.826Z,2.90
2023-01-12T23:13:26.030Z,5.82
2023-01-12T23:17:29.025Z,6.63
2023-01-12T23:21:31.834Z,7.85
2023-01-12T23:25:35.592Z,5.75
2023-01-12T23:29:38.842Z,6.25
2023-01-12T23:33:45.126Z,6.72
2023-01-12T23:37:47.944Z,4.05
2023-01-12T23:41:50.697Z,6.38
2023-01-12T23:45:54.517Z,7.97
2023-01-12T23:49:57.407Z,6.18
2023-01-12T23:54:01.668Z,6.32
2023-01-12T23:58:05.954Z,7.78
